sensor_id;sensor_type;location;lat;lon;timestamp;P1;durP1;ratioP1;P2;durP2;ratioP2
64225;SDS011;50545;56.064;26.178;2023-09-30T00:01:02;8.27;;;3.85;;
64225;SDS011;50545;56.064;26.178;2023-09-30T00:03:29;6.22;;;3.47;;
64225;SDS011;50545;56.064;26.178;2023-09-30T00:05:57;5.97;;;3.63;;
64225;SDS011;50545;56.064;26.178;2023-09-30T00:08:25;6.75;;;3.95;;
64225;SDS011;50545;56.064;26.178;2023-09-30T00:10:52;7.55;;;3.70;;
64225;SDS011;50545;56.064;26.178;2023-09-30T00:13:21;6.20;;;3.80;;
64225;SDS011;50545;56.064;26.178;2023-09-30T00:15:49;6.43;;;3.70;;
64225;SDS011;50545;56.064;26.178;2023-09-30T00:18:17;10.75;;;3.85;;
64225;SDS011;50545;56.064;26.178;2023-09-30T00:20:44;9.38;;;3.65;;
64225;SDS011;50545;56.064;26.178;2023-09-30T00:23:12;6.88;;;3.65;;
64225;SDS011;50545;56.064;26.178;2023-09-30T00:25:40;7.15;;;3.90;;
64225;SDS011;50545;56.064;26.178;2023-09-30T00:28:08;6.13;;;3.30;;
64225;SDS011;50545;56.064;26.178;2023-09-30T00:30:36;5.85;;;3.90;;
64225;SDS011;50545;56.064;26.178;2023-09-30T00:33:05;7.13;;;3.72;;
64225;SDS011;50545;56.064;26.178;2023-09-30T00:35:32;5.63;;;3.45;;
64225;SDS011;50545;56.064;26.178;2023-09-30T00:38:00;5.78;;;3.40;;
64225;SDS011;50545;56.064;26.178;2023-09-30T00:40:27;6.15;;;3.92;;
64225;SDS011;50545;56.064;26.178;2023-09-30T00:42:55;7.57;;;3.60;;
64225;SDS011;50545;56.064;26.178;2023-09-30T00:45:22;5.68;;;3.72;;
64225;SDS011;50545;56.064;26.178;2023-09-30T00:47:50;5.70;;;3.58;;
64225;SDS011;50545;56.064;26.178;2023-09-30T00:50:19;6.18;;;3.65;;
64225;SDS011;50545;56.064;26.178;2023-09-30T00:52:48;5.73;;;3.50;;
64225;SDS011;50545;56.064;26.178;2023-09-30T00:55:16;7.43;;;3.80;;
64225;SDS011;50545;56.064;26.178;2023-09-30T00:57:46;7.43;;;3.67;;
64225;SDS011;50545;56.064;26.178;2023-09-30T01:00:14;6.38;;;3.72;;
64225;SDS011;50545;56.064;26.178;2023-09-30T01:02:42;7.82;;;3.83;;
64225;SDS011;50545;56.064;26.178;2023-09-30T01:05:11;5.75;;;3.65;;
64225;SDS011;50545;56.064;26.178;2023-09-30T01:07:39;6.05;;;3.72;;
64225;SDS011;50545;56.064;26.178;2023-09-30T01:10:06;6.93;;;3.90;;
64225;SDS011;50545;56.064;26.178;2023-09-30T01:12:34;6.40;;;3.58;;
64225;SDS011;50545;56.064;26.178;2023-09-30T01:15:02;7.07;;;4.00;;
64225;SDS011;50545;56.064;26.178;2023-09-30T01:17:34;8.85;;;3.85;;
64225;SDS011;50545;56.064;26.178;2023-09-30T01:20:01;8.27;;;3.70;;
64225;SDS011;50545;56.064;26.178;2023-09-30T01:22:33;6.00;;;3.63;;
64225;SDS011;50545;56.064;26.178;2023-09-30T01:25:01;6.30;;;3.88;;
64225;SDS011;50545;56.064;26.178;2023-09-30T01:27:28;4.95;;;3.10;;
64225;SDS011;50545;56.064;26.178;2023-09-30T01:29:56;5.85;;;3.85;;
64225;SDS011;50545;56.064;26.178;2023-09-30T01:32:24;8.30;;;4.20;;
64225;SDS011;50545;56.064;26.178;2023-09-30T01:34:52;5.60;;;3.55;;
64225;SDS011;50545;56.064;26.178;2023-09-30T01:37:19;5.82;;;3.92;;
64225;SDS011;50545;56.064;26.178;2023-09-30T01:39:47;6.22;;;3.60;;
64225;SDS011;50545;56.064;26.178;2023-09-30T01:42:17;6.38;;;4.00;;
64225;SDS011;50545;56.064;26.178;2023-09-30T01:44:44;6.80;;;3.72;;
64225;SDS011;50545;56.064;26.178;2023-09-30T01:47:12;6.93;;;3.70;;
64225;SDS011;50545;56.064;26.178;2023-09-30T01:49:39;6.13;;;3.88;;
64225;SDS011;50545;56.064;26.178;2023-09-30T01:52:07;7.22;;;4.25;;
64225;SDS011;50545;56.064;26.178;2023-09-30T01:54:34;6.13;;;3.75;;
64225;SDS011;50545;56.064;26.178;2023-09-30T01:57:02;8.20;;;3.65;;
64225;SDS011;50545;56.064;26.178;2023-09-30T01:59:29;9.15;;;4.18;;
64225;SDS011;50545;56.064;26.178;2023-09-30T02:01:57;6.40;;;4.05;;
64225;SDS011;50545;56.064;26.178;2023-09-30T02:04:24;8.80;;;3.80;;
64225;SDS011;50545;56.064;26.178;2023-09-30T02:06:52;7.20;;;4.30;;
64225;SDS011;50545;56.064;26.178;2023-09-30T02:09:19;8.93;;;3.60;;
64225;SDS011;50545;56.064;26.178;2023-09-30T02:11:47;6.03;;;3.95;;
64225;SDS011;50545;56.064;26.178;2023-09-30T02:14:14;7.28;;;4.10;;
64225;SDS011;50545;56.064;26.178;2023-09-30T02:16:42;8.93;;;3.85;;
64225;SDS011;50545;56.064;26.178;2023-09-30T02:19:09;7.10;;;3.85;;
64225;SDS011;50545;56.064;26.178;2023-09-30T02:21:37;6.50;;;3.70;;
64225;SDS011;50545;56.064;26.178;2023-09-30T02:24:05;4.78;;;3.45;;
64225;SDS011;50545;56.064;26.178;2023-09-30T02:26:33;6.40;;;3.75;;
64225;SDS011;50545;56.064;26.178;2023-09-30T02:29:01;6.80;;;3.67;;
64225;SDS011;50545;56.064;26.178;2023-09-30T02:31:28;6.38;;;3.55;;
64225;SDS011;50545;56.064;26.178;2023-09-30T02:33:56;6.38;;;3.67;;
64225;SDS011;50545;56.064;26.178;2023-09-30T02:36:24;6.32;;;3.78;;
64225;SDS011;50545;56.064;26.178;2023-09-30T02:38:51;6.50;;;3.95;;
64225;SDS011;50545;56.064;26.178;2023-09-30T02:41:19;6.05;;;3.92;;
64225;SDS011;50545;56.064;26.178;2023-09-30T02:43:46;6.43;;;3.83;;
64225;SDS011;50545;56.064;26.178;2023-09-30T02:46:14;6.22;;;3.70;;
64225;SDS011;50545;56.064;26.178;2023-09-30T02:48:42;7.20;;;3.92;;
64225;SDS011;50545;56.064;26.178;2023-09-30T02:51:10;5.90;;;3.83;;
64225;SDS011;50545;56.064;26.178;2023-09-30T02:53:38;7.10;;;4.07;;
64225;SDS011;50545;56.064;26.178;2023-09-30T02:56:06;6.47;;;4.47;;
64225;SDS011;50545;56.064;26.178;2023-09-30T02:58:33;7.75;;;4.13;;
64225;SDS011;50545;56.064;26.178;2023-09-30T03:01:01;6.55;;;3.75;;
64225;SDS011;50545;56.064;26.178;2023-09-30T03:03:29;7.18;;;4.28;;
64225;SDS011;50545;56.064;26.178;2023-09-30T03:05:57;6.82;;;4.15;;
64225;SDS011;50545;56.064;26.178;2023-09-30T03:08:25;7.72;;;4.38;;
64225;SDS011;50545;56.064;26.178;2023-09-30T03:10:52;6.55;;;4.28;;
64225;SDS011;50545;56.064;26.178;2023-09-30T03:13:20;6.80;;;4.38;;
64225;SDS011;50545;56.064;26.178;2023-09-30T03:15:49;6.57;;;4.18;;
64225;SDS011;50545;56.064;26.178;2023-09-30T03:18:16;8.68;;;4.53;;
64225;SDS011;50545;56.064;26.178;2023-09-30T03:20:44;5.40;;;3.75;;
64225;SDS011;50545;56.064;26.178;2023-09-30T03:23:11;6.68;;;4.35;;
64225;SDS011;50545;56.064;26.178;2023-09-30T03:25:40;6.90;;;4.18;;
64225;SDS011;50545;56.064;26.178;2023-09-30T03:28:08;6.13;;;3.88;;
64225;SDS011;50545;56.064;26.178;2023-09-30T03:30:36;6.63;;;4.32;;
64225;SDS011;50545;56.064;26.178;2023-09-30T03:33:04;7.82;;;4.22;;
64225;SDS011;50545;56.064;26.178;2023-09-30T03:35:31;8.48;;;4.03;;
64225;SDS011;50545;56.064;26.178;2023-09-30T03:37:59;7.47;;;4.07;;
64225;SDS011;50545;56.064;26.178;2023-09-30T03:40:28;7.45;;;4.18;;
64225;SDS011;50545;56.064;26.178;2023-09-30T03:43:00;6.65;;;4.10;;
64225;SDS011;50545;56.064;26.178;2023-09-30T03:45:28;6.25;;;4.18;;
64225;SDS011;50545;56.064;26.178;2023-09-30T03:47:55;7.22;;;3.92;;
64225;SDS011;50545;56.064;26.178;2023-09-30T03:50:24;6.78;;;3.45;;
64225;SDS011;50545;56.064;26.178;2023-09-30T03:52:51;6.63;;;3.97;;
64225;SDS011;50545;56.064;26.178;2023-09-30T03:55:27;6.72;;;4.10;;
64225;SDS011;50545;56.064;26.178;2023-09-30T03:57:56;8.48;;;4.07;;
64225;SDS011;50545;56.064;26.178;2023-09-30T04:00:24;8.38;;;4.22;;
64225;SDS011;50545;56.064;26.178;2023-09-30T04:02:51;7.13;;;4.20;;
64225;SDS011;50545;56.064;26.178;2023-09-30T04:05:25;8.18;;;4.45;;
64225;SDS011;50545;56.064;26.178;2023-09-30T04:07:56;10.48;;;4.30;;
64225;SDS011;50545;56.064;26.178;2023-09-30T04:10:24;6.93;;;4.35;;
64225;SDS011;50545;56.064;26.178;2023-09-30T04:12:52;6.75;;;3.97;;
64225;SDS011;50545;56.064;26.178;2023-09-30T04:15:19;6.28;;;4.00;;
64225;SDS011;50545;56.064;26.178;2023-09-30T04:17:48;7.78;;;4.35;;
64225;SDS011;50545;56.064;26.178;2023-09-30T04:20:16;6.57;;;4.22;;
64225;SDS011;50545;56.064;26.178;2023-09-30T04:22:47;6.78;;;4.53;;
64225;SDS011;50545;56.064;26.178;2023-09-30T04:25:16;8.70;;;4.18;;
64225;SDS011;50545;56.064;26.178;2023-09-30T04:27:44;7.72;;;4.57;;
64225;SDS011;50545;56.064;26.178;2023-09-30T04:30:16;6.28;;;4.68;;
64225;SDS011;50545;56.064;26.178;2023-09-30T04:32:44;6.45;;;4.07;;
64225;SDS011;50545;56.064;26.178;2023-09-30T04:35:12;7.25;;;4.15;;
64225;SDS011;50545;56.064;26.178;2023-09-30T04:37:40;7.13;;;4.10;;
64225;SDS011;50545;56.064;26.178;2023-09-30T04:40:08;7.25;;;4.15;;
64225;SDS011;50545;56.064;26.178;2023-09-30T04:42:47;5.30;;;3.65;;
64225;SDS011;50545;56.064;26.178;2023-09-30T04:45:15;6.40;;;4.10;;
64225;SDS011;50545;56.064;26.178;2023-09-30T04:47:53;8.32;;;4.32;;
64225;SDS011;50545;56.064;26.178;2023-09-30T04:50:24;8.07;;;4.55;;
64225;SDS011;50545;56.064;26.178;2023-09-30T04:52:51;6.80;;;4.28;;
64225;SDS011;50545;56.064;26.178;2023-09-30T04:55:20;8.38;;;4.18;;
64225;SDS011;50545;56.064;26.178;2023-09-30T04:57:47;7.97;;;4.75;;
64225;SDS011;50545;56.064;26.178;2023-09-30T05:00:17;8.50;;;4.25;;
64225;SDS011;50545;56.064;26.178;2023-09-30T05:02:45;6.97;;;4.50;;
64225;SDS011;50545;56.064;26.178;2023-09-30T05:05:13;6.38;;;4.10;;
64225;SDS011;50545;56.064;26.178;2023-09-30T05:07:42;8.57;;;3.85;;
64225;SDS011;50545;56.064;26.178;2023-09-30T05:10:10;6.22;;;3.95;;
64225;SDS011;50545;56.064;26.178;2023-09-30T05:12:40;9.05;;;4.05;;
64225;SDS011;50545;56.064;26.178;2023-09-30T05:15:14;5.15;;;3.60;;
64225;SDS011;50545;56.064;26.178;2023-09-30T05:17:43;6.60;;;4.07;;
64225;SDS011;50545;56.064;26.178;2023-09-30T05:20:12;6.07;;;3.83;;
64225;SDS011;50545;56.064;26.178;2023-09-30T05:22:40;6.88;;;4.18;;
64225;SDS011;50545;56.064;26.178;2023-09-30T05:25:12;9.38;;;5.85;;
64225;SDS011;50545;56.064;26.178;2023-09-30T05:27:43;6.38;;;3.95;;
64225;SDS011;50545;56.064;26.178;2023-09-30T05:30:11;10.07;;;4.90;;
64225;SDS011;50545;56.064;26.178;2023-09-30T05:32:42;8.88;;;5.00;;
64225;SDS011;50545;56.064;26.178;2023-09-30T05:35:09;9.32;;;5.00;;
64225;SDS011;50545;56.064;26.178;2023-09-30T05:37:40;7.30;;;4.22;;
64225;SDS011;50545;56.064;26.178;2023-09-30T05:40:09;8.32;;;4.70;;
64225;SDS011;50545;56.064;26.178;2023-09-30T05:42:54;7.93;;;4.90;;
64225;SDS011;50545;56.064;26.178;2023-09-30T05:45:25;9.88;;;5.22;;
64225;SDS011;50545;56.064;26.178;2023-09-30T05:47:54;8.38;;;4.65;;
64225;SDS011;50545;56.064;26.178;2023-09-30T05:50:24;7.95;;;4.50;;
64225;SDS011;50545;56.064;26.178;2023-09-30T05:52:54;7.30;;;4.50;;
64225;SDS011;50545;56.064;26.178;2023-09-30T05:55:22;7.18;;;4.57;;
64225;SDS011;50545;56.064;26.178;2023-09-30T05:57:53;8.68;;;4.90;;
64225;SDS011;50545;56.064;26.178;2023-09-30T06:00:21;9.18;;;4.70;;
64225;SDS011;50545;56.064;26.178;2023-09-30T06:03:01;7.33;;;4.50;;
64225;SDS011;50545;56.064;26.178;2023-09-30T06:05:33;7.60;;;4.32;;
64225;SDS011;50545;56.064;26.178;2023-09-30T06:08:02;8.18;;;4.95;;
64225;SDS011;50545;56.064;26.178;2023-09-30T06:10:31;6.82;;;4.35;;
64225;SDS011;50545;56.064;26.178;2023-09-30T06:12:58;6.05;;;3.95;;
64225;SDS011;50545;56.064;26.178;2023-09-30T06:15:26;6.13;;;4.07;;
64225;SDS011;50545;56.064;26.178;2023-09-30T06:17:55;7.53;;;4.50;;
64225;SDS011;50545;56.064;26.178;2023-09-30T06:20:23;7.47;;;4.97;;
64225;SDS011;50545;56.064;26.178;2023-09-30T06:22:54;7.82;;;4.60;;
64225;SDS011;50545;56.064;26.178;2023-09-30T06:25:22;7.40;;;4.85;;
64225;SDS011;50545;56.064;26.178;2023-09-30T06:27:54;8.02;;;4.78;;
64225;SDS011;50545;56.064;26.178;2023-09-30T06:30:22;7.43;;;4.35;;
64225;SDS011;50545;56.064;26.178;2023-09-30T06:32:57;7.93;;;4.82;;
64225;SDS011;50545;56.064;26.178;2023-09-30T06:35:27;6.90;;;4.20;;
64225;SDS011;50545;56.064;26.178;2023-09-30T06:37:57;6.77;;;4.20;;
64225;SDS011;50545;56.064;26.178;2023-09-30T06:40:24;7.45;;;4.25;;
64225;SDS011;50545;56.064;26.178;2023-09-30T06:42:52;7.78;;;4.80;;
64225;SDS011;50545;56.064;26.178;2023-09-30T06:45:20;8.32;;;4.78;;
64225;SDS011;50545;56.064;26.178;2023-09-30T06:47:48;5.93;;;3.97;;
64225;SDS011;50545;56.064;26.178;2023-09-30T06:50:16;8.35;;;4.68;;
64225;SDS011;50545;56.064;26.178;2023-09-30T06:52:44;7.45;;;5.03;;
64225;SDS011;50545;56.064;26.178;2023-09-30T06:55:16;7.72;;;4.97;;
64225;SDS011;50545;56.064;26.178;2023-09-30T06:57:44;9.88;;;5.57;;
64225;SDS011;50545;56.064;26.178;2023-09-30T07:00:13;8.25;;;5.07;;
64225;SDS011;50545;56.064;26.178;2023-09-30T07:02:41;9.27;;;5.70;;
64225;SDS011;50545;56.064;26.178;2023-09-30T07:05:12;8.63;;;5.22;;
64225;SDS011;50545;56.064;26.178;2023-09-30T07:07:41;8.45;;;5.07;;
64225;SDS011;50545;56.064;26.178;2023-09-30T07:10:12;6.57;;;4.40;;
64225;SDS011;50545;56.064;26.178;2023-09-30T07:12:41;6.85;;;4.90;;
64225;SDS011;50545;56.064;26.178;2023-09-30T07:15:09;6.85;;;4.53;;
64225;SDS011;50545;56.064;26.178;2023-09-30T07:17:36;8.65;;;4.75;;
64225;SDS011;50545;56.064;26.178;2023-09-30T07:20:05;6.32;;;4.22;;
64225;SDS011;50545;56.064;26.178;2023-09-30T07:22:34;8.30;;;4.50;;
64225;SDS011;50545;56.064;26.178;2023-09-30T07:25:21;8.85;;;5.00;;
64225;SDS011;50545;56.064;26.178;2023-09-30T07:27:48;9.95;;;5.70;;
64225;SDS011;50545;56.064;26.178;2023-09-30T07:30:17;8.18;;;5.38;;
64225;SDS011;50545;56.064;26.178;2023-09-30T07:32:45;10.98;;;5.30;;
64225;SDS011;50545;56.064;26.178;2023-09-30T07:35:14;10.98;;;5.50;;
64225;SDS011;50545;56.064;26.178;2023-09-30T07:37:42;7.05;;;4.40;;
64225;SDS011;50545;56.064;26.178;2023-09-30T07:40:10;8.30;;;5.10;;
64225;SDS011;50545;56.064;26.178;2023-09-30T07:42:39;11.15;;;5.18;;
64225;SDS011;50545;56.064;26.178;2023-09-30T07:45:07;9.27;;;5.22;;
64225;SDS011;50545;56.064;26.178;2023-09-30T07:47:35;8.70;;;5.10;;
64225;SDS011;50545;56.064;26.178;2023-09-30T07:50:03;8.32;;;5.20;;
64225;SDS011;50545;56.064;26.178;2023-09-30T07:52:37;9.85;;;5.30;;
64225;SDS011;50545;56.064;26.178;2023-09-30T07:55:09;8.25;;;5.28;;
64225;SDS011;50545;56.064;26.178;2023-09-30T07:57:39;9.70;;;5.72;;
64225;SDS011;50545;56.064;26.178;2023-09-30T08:00:09;8.73;;;5.47;;
64225;SDS011;50545;56.064;26.178;2023-09-30T08:02:43;9.15;;;5.57;;
64225;SDS011;50545;56.064;26.178;2023-09-30T08:05:11;9.18;;;5.18;;
64225;SDS011;50545;56.064;26.178;2023-09-30T08:07:39;8.55;;;5.28;;
64225;SDS011;50545;56.064;26.178;2023-09-30T08:10:08;9.05;;;5.13;;
64225;SDS011;50545;56.064;26.178;2023-09-30T08:12:40;8.90;;;5.38;;
64225;SDS011;50545;56.064;26.178;2023-09-30T08:15:09;9.70;;;6.10;;
64225;SDS011;50545;56.064;26.178;2023-09-30T08:17:39;9.43;;;5.75;;
64225;SDS011;50545;56.064;26.178;2023-09-30T08:20:07;9.68;;;5.78;;
64225;SDS011;50545;56.064;26.178;2023-09-30T08:22:38;12.73;;;6.88;;
64225;SDS011;50545;56.064;26.178;2023-09-30T08:25:08;10.93;;;5.57;;
64225;SDS011;50545;56.064;26.178;2023-09-30T08:27:37;11.07;;;5.00;;
64225;SDS011;50545;56.064;26.178;2023-09-30T08:30:06;8.60;;;5.43;;
64225;SDS011;50545;56.064;26.178;2023-09-30T08:32:36;8.32;;;5.38;;
64225;SDS011;50545;56.064;26.178;2023-09-30T08:35:04;9.57;;;5.65;;
64225;SDS011;50545;56.064;26.178;2023-09-30T08:37:33;9.43;;;5.63;;
64225;SDS011;50545;56.064;26.178;2023-09-30T08:40:00;9.27;;;5.68;;
64225;SDS011;50545;56.064;26.178;2023-09-30T08:42:32;8.02;;;5.32;;
64225;SDS011;50545;56.064;26.178;2023-09-30T08:45:02;6.88;;;4.75;;
64225;SDS011;50545;56.064;26.178;2023-09-30T08:47:34;9.07;;;6.25;;
64225;SDS011;50545;56.064;26.178;2023-09-30T08:50:03;8.07;;;5.25;;
64225;SDS011;50545;56.064;26.178;2023-09-30T08:52:33;9.02;;;6.00;;
64225;SDS011;50545;56.064;26.178;2023-09-30T08:55:06;7.15;;;4.93;;
64225;SDS011;50545;56.064;26.178;2023-09-30T08:57:39;9.02;;;5.68;;
64225;SDS011;50545;56.064;26.178;2023-09-30T09:00:11;7.95;;;4.30;;
64225;SDS011;50545;56.064;26.178;2023-09-30T09:02:41;8.13;;;4.72;;
64225;SDS011;50545;56.064;26.178;2023-09-30T09:05:09;8.38;;;4.88;;
64225;SDS011;50545;56.064;26.178;2023-09-30T09:07:38;9.73;;;5.95;;
64225;SDS011;50545;56.064;26.178;2023-09-30T09:10:07;8.32;;;5.78;;
64225;SDS011;50545;56.064;26.178;2023-09-30T09:12:35;8.90;;;5.68;;
64225;SDS011;50545;56.064;26.178;2023-09-30T09:15:06;8.15;;;5.55;;
64225;SDS011;50545;56.064;26.178;2023-09-30T09:17:42;9.00;;;5.13;;
64225;SDS011;50545;56.064;26.178;2023-09-30T09:20:11;8.57;;;4.88;;
64225;SDS011;50545;56.064;26.178;2023-09-30T09:22:50;7.78;;;4.95;;
64225;SDS011;50545;56.064;26.178;2023-09-30T09:25:20;9.40;;;5.55;;
64225;SDS011;50545;56.064;26.178;2023-09-30T09:27:52;9.35;;;5.35;;
64225;SDS011;50545;56.064;26.178;2023-09-30T09:30:26;8.60;;;5.37;;
64225;SDS011;50545;56.064;26.178;2023-09-30T09:33:01;8.30;;;5.72;;
64225;SDS011;50545;56.064;26.178;2023-09-30T09:35:30;9.48;;;5.60;;
64225;SDS011;50545;56.064;26.178;2023-09-30T09:38:00;7.82;;;5.57;;
64225;SDS011;50545;56.064;26.178;2023-09-30T09:40:29;9.30;;;5.75;;
64225;SDS011;50545;56.064;26.178;2023-09-30T09:42:59;9.13;;;6.25;;
64225;SDS011;50545;56.064;26.178;2023-09-30T09:47:59;7.88;;;5.45;;
64225;SDS011;50545;56.064;26.178;2023-09-30T09:50:27;9.27;;;5.43;;
64225;SDS011;50545;56.064;26.178;2023-09-30T09:52:54;8.40;;;5.50;;
64225;SDS011;50545;56.064;26.178;2023-09-30T09:55:23;9.77;;;5.07;;
64225;SDS011;50545;56.064;26.178;2023-09-30T09:57:51;8.20;;;5.28;;
64225;SDS011;50545;56.064;26.178;2023-09-30T10:00:23;9.93;;;5.07;;
64225;SDS011;50545;56.064;26.178;2023-09-30T10:02:51;10.25;;;5.63;;
64225;SDS011;50545;56.064;26.178;2023-09-30T10:05:20;9.35;;;5.82;;
64225;SDS011;50545;56.064;26.178;2023-09-30T10:08:05;8.73;;;5.80;;
64225;SDS011;50545;56.064;26.178;2023-09-30T10:10:36;9.88;;;6.60;;
64225;SDS011;50545;56.064;26.178;2023-09-30T10:13:05;11.02;;;6.40;;
64225;SDS011;50545;56.064;26.178;2023-09-30T10:18:09;10.70;;;6.90;;
64225;SDS011;50545;56.064;26.178;2023-09-30T10:20:42;9.35;;;5.60;;
64225;SDS011;50545;56.064;26.178;2023-09-30T10:25:49;12.65;;;6.38;;
64225;SDS011;50545;56.064;26.178;2023-09-30T10:31:08;11.10;;;7.47;;
64225;SDS011;50545;56.064;26.178;2023-09-30T10:36:29;10.32;;;6.10;;
64225;SDS011;50545;56.064;26.178;2023-09-30T10:39:00;8.65;;;5.85;;
64225;SDS011;50545;56.064;26.178;2023-09-30T10:46:57;11.82;;;6.00;;
64225;SDS011;50545;56.064;26.178;2023-09-30T10:51:56;12.75;;;8.38;;
64225;SDS011;50545;56.064;26.178;2023-09-30T10:54:25;7.43;;;5.13;;
64225;SDS011;50545;56.064;26.178;2023-09-30T10:56:57;8.98;;;5.55;;
64225;SDS011;50545;56.064;26.178;2023-09-30T10:59:27;9.18;;;6.20;;
64225;SDS011;50545;56.064;26.178;2023-09-30T11:01:57;10.45;;;7.10;;
64225;SDS011;50545;56.064;26.178;2023-09-30T11:04:25;12.23;;;7.68;;
64225;SDS011;50545;56.064;26.178;2023-09-30T11:06:55;9.67;;;6.50;;
64225;SDS011;50545;56.064;26.178;2023-09-30T11:09:24;9.73;;;6.38;;
64225;SDS011;50545;56.064;26.178;2023-09-30T11:11:52;10.40;;;6.72;;
64225;SDS011;50545;56.064;26.178;2023-09-30T11:14:27;10.57;;;6.95;;
64225;SDS011;50545;56.064;26.178;2023-09-30T11:16:58;12.07;;;7.60;;
64225;SDS011;50545;56.064;26.178;2023-09-30T11:19:34;10.90;;;8.52;;
64225;SDS011;50545;56.064;26.178;2023-09-30T11:22:22;13.18;;;7.75;;
64225;SDS011;50545;56.064;26.178;2023-09-30T11:24:50;12.55;;;6.93;;
64225;SDS011;50545;56.064;26.178;2023-09-30T11:27:24;10.93;;;6.45;;
64225;SDS011;50545;56.064;26.178;2023-09-30T11:29:51;12.02;;;8.30;;
64225;SDS011;50545;56.064;26.178;2023-09-30T11:32:27;13.98;;;8.98;;
64225;SDS011;50545;56.064;26.178;2023-09-30T11:34:56;11.20;;;7.40;;
64225;SDS011;50545;56.064;26.178;2023-09-30T11:37:23;11.20;;;7.63;;
64225;SDS011;50545;56.064;26.178;2023-09-30T11:40:08;9.60;;;7.10;;
64225;SDS011;50545;56.064;26.178;2023-09-30T11:42:40;12.02;;;7.60;;
64225;SDS011;50545;56.064;26.178;2023-09-30T11:45:21;12.05;;;7.00;;
64225;SDS011;50545;56.064;26.178;2023-09-30T11:47:51;10.25;;;6.82;;
64225;SDS011;50545;56.064;26.178;2023-09-30T11:50:19;12.30;;;7.55;;
64225;SDS011;50545;56.064;26.178;2023-09-30T11:52:47;11.73;;;7.90;;
64225;SDS011;50545;56.064;26.178;2023-09-30T11:55:14;12.48;;;8.18;;
64225;SDS011;50545;56.064;26.178;2023-09-30T11:57:43;11.18;;;7.90;;
64225;SDS011;50545;56.064;26.178;2023-09-30T12:00:10;12.77;;;7.18;;
64225;SDS011;50545;56.064;26.178;2023-09-30T12:02:41;13.48;;;8.23;;
64225;SDS011;50545;56.064;26.178;2023-09-30T12:05:08;13.63;;;7.82;;
64225;SDS011;50545;56.064;26.178;2023-09-30T12:07:38;14.10;;;9.15;;
64225;SDS011;50545;56.064;26.178;2023-09-30T12:10:08;11.18;;;7.47;;
64225;SDS011;50545;56.064;26.178;2023-09-30T12:12:36;10.60;;;6.32;;
64225;SDS011;50545;56.064;26.178;2023-09-30T12:17:35;11.77;;;7.95;;
64225;SDS011;50545;56.064;26.178;2023-09-30T12:20:05;11.30;;;6.45;;
64225;SDS011;50545;56.064;26.178;2023-09-30T12:22:33;14.27;;;7.80;;
64225;SDS011;50545;56.064;26.178;2023-09-30T12:25:00;11.57;;;6.88;;
64225;SDS011;50545;56.064;26.178;2023-09-30T12:27:28;13.13;;;7.40;;
64225;SDS011;50545;56.064;26.178;2023-09-30T12:29:55;11.35;;;6.70;;
64225;SDS011;50545;56.064;26.178;2023-09-30T12:32:22;8.82;;;5.97;;
64225;SDS011;50545;56.064;26.178;2023-09-30T12:34:50;11.00;;;6.63;;
64225;SDS011;50545;56.064;26.178;2023-09-30T12:37:18;10.02;;;6.63;;
64225;SDS011;50545;56.064;26.178;2023-09-30T12:39:45;10.27;;;6.88;;
64225;SDS011;50545;56.064;26.178;2023-09-30T12:42:12;9.35;;;6.30;;
64225;SDS011;50545;56.064;26.178;2023-09-30T12:44:41;12.60;;;7.57;;
64225;SDS011;50545;56.064;26.178;2023-09-30T12:47:08;15.80;;;8.88;;
64225;SDS011;50545;56.064;26.178;2023-09-30T12:49:36;12.95;;;8.05;;
64225;SDS011;50545;56.064;26.178;2023-09-30T12:52:04;11.18;;;6.75;;
64225;SDS011;50545;56.064;26.178;2023-09-30T12:54:31;11.15;;;7.13;;
64225;SDS011;50545;56.064;26.178;2023-09-30T12:56:59;11.18;;;6.78;;
64225;SDS011;50545;56.064;26.178;2023-09-30T12:59:27;13.63;;;7.25;;
64225;SDS011;50545;56.064;26.178;2023-09-30T13:01:54;13.57;;;9.15;;
64225;SDS011;50545;56.064;26.178;2023-09-30T13:04:23;12.07;;;8.27;;
64225;SDS011;50545;56.064;26.178;2023-09-30T13:06:52;10.05;;;7.40;;
64225;SDS011;50545;56.064;26.178;2023-09-30T13:09:20;7.60;;;4.80;;
64225;SDS011;50545;56.064;26.178;2023-09-30T13:11:47;8.98;;;5.55;;
64225;SDS011;50545;56.064;26.178;2023-09-30T13:14:15;7.20;;;4.28;;
64225;SDS011;50545;56.064;26.178;2023-09-30T13:16:43;8.43;;;4.63;;
64225;SDS011;50545;56.064;26.178;2023-09-30T13:19:11;8.52;;;4.60;;
64225;SDS011;50545;56.064;26.178;2023-09-30T13:21:39;7.93;;;5.40;;
64225;SDS011;50545;56.064;26.178;2023-09-30T13:24:08;8.50;;;4.78;;
64225;SDS011;50545;56.064;26.178;2023-09-30T13:26:37;8.60;;;5.20;;
64225;SDS011;50545;56.064;26.178;2023-09-30T13:29:04;8.68;;;5.10;;
64225;SDS011;50545;56.064;26.178;2023-09-30T13:31:32;6.47;;;4.38;;
64225;SDS011;50545;56.064;26.178;2023-09-30T13:33:59;6.68;;;4.45;;
64225;SDS011;50545;56.064;26.178;2023-09-30T13:36:27;8.93;;;4.90;;
64225;SDS011;50545;56.064;26.178;2023-09-30T13:38:55;6.15;;;3.90;;
64225;SDS011;50545;56.064;26.178;2023-09-30T13:41:23;7.80;;;4.55;;
64225;SDS011;50545;56.064;26.178;2023-09-30T13:43:51;6.88;;;4.07;;
64225;SDS011;50545;56.064;26.178;2023-09-30T13:46:19;6.93;;;4.32;;
64225;SDS011;50545;56.064;26.178;2023-09-30T13:48:50;7.07;;;4.40;;
64225;SDS011;50545;56.064;26.178;2023-09-30T13:51:19;6.75;;;4.10;;
64225;SDS011;50545;56.064;26.178;2023-09-30T13:53:46;8.23;;;4.60;;
64225;SDS011;50545;56.064;26.178;2023-09-30T13:56:14;6.63;;;4.07;;
64225;SDS011;50545;56.064;26.178;2023-09-30T13:58:41;7.50;;;4.53;;
64225;SDS011;50545;56.064;26.178;2023-09-30T14:01:09;8.00;;;4.22;;
64225;SDS011;50545;56.064;26.178;2023-09-30T14:03:37;5.70;;;3.20;;
64225;SDS011;50545;56.064;26.178;2023-09-30T14:06:10;6.60;;;3.88;;
64225;SDS011;50545;56.064;26.178;2023-09-30T14:08:41;7.50;;;3.95;;
64225;SDS011;50545;56.064;26.178;2023-09-30T14:11:09;4.20;;;2.85;;
64225;SDS011;50545;56.064;26.178;2023-09-30T14:13:38;5.43;;;3.17;;
64225;SDS011;50545;56.064;26.178;2023-09-30T14:16:09;5.30;;;2.85;;
64225;SDS011;50545;56.064;26.178;2023-09-30T14:18:36;3.90;;;2.47;;
64225;SDS011;50545;56.064;26.178;2023-09-30T14:21:06;4.40;;;2.58;;
64225;SDS011;50545;56.064;26.178;2023-09-30T14:23:33;4.93;;;3.20;;
64225;SDS011;50545;56.064;26.178;2023-09-30T14:26:04;5.45;;;3.10;;
64225;SDS011;50545;56.064;26.178;2023-09-30T14:28:37;5.00;;;2.75;;
64225;SDS011;50545;56.064;26.178;2023-09-30T14:31:05;4.22;;;2.20;;
64225;SDS011;50545;56.064;26.178;2023-09-30T14:33:32;3.42;;;1.92;;
64225;SDS011;50545;56.064;26.178;2023-09-30T14:36:01;2.40;;;1.63;;
64225;SDS011;50545;56.064;26.178;2023-09-30T14:38:32;4.93;;;2.35;;
64225;SDS011;50545;56.064;26.178;2023-09-30T14:41:00;3.67;;;2.17;;
64225;SDS011;50545;56.064;26.178;2023-09-30T14:43:28;4.82;;;2.20;;
64225;SDS011;50545;56.064;26.178;2023-09-30T14:45:56;4.70;;;2.20;;
64225;SDS011;50545;56.064;26.178;2023-09-30T14:48:23;5.18;;;2.10;;
64225;SDS011;50545;56.064;26.178;2023-09-30T14:50:51;3.38;;;2.30;;
64225;SDS011;50545;56.064;26.178;2023-09-30T14:53:19;3.85;;;2.13;;
64225;SDS011;50545;56.064;26.178;2023-09-30T14:55:46;4.55;;;2.20;;
64225;SDS011;50545;56.064;26.178;2023-09-30T14:58:14;4.90;;;2.47;;
64225;SDS011;50545;56.064;26.178;2023-09-30T15:00:41;3.88;;;1.95;;
64225;SDS011;50545;56.064;26.178;2023-09-30T15:03:09;4.43;;;2.13;;
64225;SDS011;50545;56.064;26.178;2023-09-30T15:05:37;4.35;;;2.30;;
64225;SDS011;50545;56.064;26.178;2023-09-30T15:08:05;4.65;;;2.00;;